Time;durP1;ratioP1;P1;durP2;ratioP2;P2;SDS_P1;SDS_P2;PMS_P1;PMS_P2;Temp;Humidity;BMP_temperature;BMP_pressure;BME280_temperature;BME280_humidity;BME280_pressure;Samples;Min_cycle;Max_cycle;Signal;HPM_P1;HPM_P2
2023/07/22 00:01:00;;;;;;;12.33;8.20;;;13.30;99.90;;;;;;5074962;28;20170;-71
2023/07/22 00:03:26;;;;;;;8.23;7.27;;;13.30;99.90;;;;;;5074612;28;20197;-71
2023/07/22 00:06:06;;;;;;;11.70;7.93;;;13.30;99.90;;;;;;5074574;28;20226;-71
2023/07/22 00:08:33;;;;;;;8.73;7.83;;;13.20;99.90;;;;;;5074536;28;20165;-71
2023/07/22 00:10:59;;;;;;;9.50;8.03;;;13.20;99.90;;;;;;5073781;28;20170;-71
2023/07/22 00:13:28;;;;;;;9.13;7.70;;;13.10;99.90;;;;;;5074492;28;20193;-71
2023/07/22 00:15:54;;;;;;;8.27;7.47;;;13.10;99.90;;;;;;5074283;28;20208;-71
2023/07/22 00:18:20;;;;;;;9.07;7.70;;;13.10;99.90;;;;;;5074372;28;20238;-70
2023/07/22 00:20:45;;;;;;;9.53;7.83;;;13.10;99.90;;;;;;5056410;28;20272;-70
2023/07/22 00:23:11;;;;;;;8.63;7.77;;;13.10;99.90;;;;;;5074061;28;20269;-70
2023/07/22 00:25:37;;;;;;;13.70;7.47;;;13.00;99.90;;;;;;5074319;28;20202;-70
2023/07/22 00:28:04;;;;;;;8.53;7.47;;;13.00;99.90;;;;;;5056256;28;20680;-70
2023/07/22 00:30:29;;;;;;;9.40;8.40;;;13.00;99.90;;;;;;5074374;28;20170;-70
2023/07/22 00:32:55;;;;;;;10.13;7.10;;;13.00;99.90;;;;;;5073613;28;20629;-70
2023/07/22 00:35:21;;;;;;;10.97;7.27;;;13.00;99.90;;;;;;5073898;28;20174;-70
2023/07/22 00:37:47;;;;;;;8.07;6.77;;;13.00;99.90;;;;;;5074274;28;20253;-70
2023/07/22 00:40:12;;;;;;;11.13;7.30;;;13.00;99.90;;;;;;5073905;28;20253;-70
2023/07/22 00:42:39;;;;;;;7.77;6.97;;;13.00;99.90;;;;;;5073666;28;20760;-70
2023/07/22 00:45:05;;;;;;;9.23;7.47;;;13.10;99.90;;;;;;5073974;28;20206;-70
2023/07/22 00:47:33;;;;;;;7.77;6.50;;;13.10;99.90;;;;;;5073890;28;20201;-70
2023/07/22 00:50:01;;;;;;;9.07;6.97;;;13.10;99.90;;;;;;5055828;28;20166;-70
2023/07/22 00:52:27;;;;;;;8.77;6.90;;;13.20;99.90;;;;;;5073449;28;20257;-70
2023/07/22 00:54:53;;;;;;;11.27;7.13;;;13.30;99.90;;;;;;5073718;28;20209;-70
2023/07/22 00:57:19;;;;;;;9.13;6.80;;;13.30;99.90;;;;;;5073040;28;20752;-70
2023/07/22 00:59:45;;;;;;;9.70;6.87;;;13.30;99.90;;;;;;5073886;28;20201;-70
2023/07/22 01:02:11;;;;;;;9.43;7.23;;;13.40;99.90;;;;;;5073198;28;20209;-70
2023/07/22 01:04:37;;;;;;;7.63;6.40;;;13.40;99.90;;;;;;5072225;28;20645;-70
2023/07/22 01:07:08;;;;;;;7.47;6.53;;;13.40;99.90;;;;;;5073292;28;20225;-70
2023/07/22 01:09:38;;;;;;;8.00;6.50;;;13.40;99.90;;;;;;5073056;28;20194;-70
2023/07/22 01:12:05;;;;;;;7.23;6.47;;;13.40;99.90;;;;;;5073045;28;20170;-70
2023/07/22 01:14:35;;;;;;;7.93;7.13;;;13.40;99.90;;;;;;5073187;28;20544;-70
2023/07/22 01:17:02;;;;;;;9.33;7.30;;;13.30;99.90;;;;;;5068624;22;20677;-88
2023/07/22 01:19:30;;;;;;;8.13;6.97;;;13.30;99.90;;;;;;5084816;28;20651;-89
2023/07/22 01:22:02;;;;;;;7.97;7.17;;;13.20;99.90;;;;;;5081875;28;20173;-88
2023/07/22 01:24:29;;;;;;;7.37;6.10;;;13.20;99.90;;;;;;5080848;28;20217;-88
2023/07/22 01:26:55;;;;;;;7.67;6.87;;;13.20;99.90;;;;;;5079834;28;20181;-88
2023/07/22 01:29:22;;;;;;;8.77;7.57;;;13.20;99.90;;;;;;5079275;28;20322;-88
2023/07/22 01:31:53;;;;;;;7.60;6.73;;;13.30;99.90;;;;;;5077411;28;20181;-89
2023/07/22 01:34:20;;;;;;;8.47;6.93;;;13.30;99.90;;;;;;5098123;28;20258;-89
2023/07/22 01:36:50;;;;;;;7.73;6.93;;;13.40;99.90;;;;;;5081616;28;20189;-89
2023/07/22 01:39:16;;;;;;;7.20;6.47;;;13.40;99.90;;;;;;5080811;28;20181;-89
2023/07/22 01:41:41;;;;;;;9.00;6.63;;;13.40;99.90;;;;;;5080169;28;20188;-89
2023/07/22 01:44:08;;;;;;;8.87;6.70;;;13.40;99.90;;;;;;5080366;28;20945;-89
2023/07/22 01:46:34;;;;;;;7.23;6.27;;;13.50;99.90;;;;;;5080495;28;20180;-89
2023/07/22 01:49:01;;;;;;;7.63;6.80;;;13.50;99.90;;;;;;5064684;28;20538;-89
2023/07/22 01:51:28;;;;;;;9.40;6.70;;;13.50;99.90;;;;;;5084062;28;20170;-89
2023/07/22 01:53:56;;;;;;;7.23;6.53;;;13.60;99.90;;;;;;5101004;28;20287;-89
2023/07/22 01:56:22;;;;;;;7.63;6.43;;;13.50;99.90;;;;;;5101916;28;20193;-88
2023/07/22 01:58:48;;;;;;;12.50;6.90;;;13.50;99.90;;;;;;5093869;28;20671;-89
2023/07/22 02:01:15;;;;;;;8.87;7.17;;;13.50;99.90;;;;;;5079685;28;20203;-89
2023/07/22 02:03:45;;;;;;;7.50;6.80;;;13.40;99.90;;;;;;5068203;28;20209;-89
2023/07/22 02:06:10;;;;;;;8.47;6.90;;;13.30;99.90;;;;;;5079597;28;20181;-89
2023/07/22 02:08:36;;;;;;;7.10;6.43;;;13.20;99.90;;;;;;5079214;28;20176;-89
2023/07/22 02:11:04;;;;;;;11.17;6.83;;;13.10;99.90;;;;;;5063055;28;20571;-89
2023/07/22 02:13:33;;;;;;;8.47;6.90;;;13.10;99.90;;;;;;5079845;28;20189;-88
2023/07/22 02:16:03;;;;;;;7.93;6.87;;;13.00;99.90;;;;;;5099160;28;20181;-89
2023/07/22 02:18:31;;;;;;;7.50;6.77;;;12.90;99.90;;;;;;5097349;28;20272;-88
2023/07/22 02:20:57;;;;;;;11.43;7.23;;;12.90;99.90;;;;;;5079146;28;20197;-89
2023/07/22 02:23:24;;;;;;;12.77;7.67;;;12.80;99.90;;;;;;5080028;28;20192;-88
2023/07/22 02:25:53;;;;;;;11.40;7.63;;;12.80;99.90;;;;;;5079844;28;20295;-89
2023/07/22 02:28:21;;;;;;;8.13;7.07;;;12.80;99.90;;;;;;5079104;28;20552;-89
2023/07/22 02:30:47;;;;;;;8.87;7.47;;;12.80;99.90;;;;;;5079504;28;20467;-89
2023/07/22 02:33:14;;;;;;;9.13;7.53;;;12.90;99.90;;;;;;5079567;28;20198;-89
2023/07/22 02:35:42;;;;;;;8.53;7.63;;;12.80;99.90;;;;;;5080238;28;20226;-89
2023/07/22 02:38:08;;;;;;;8.90;7.30;;;12.90;99.90;;;;;;5079601;28;20178;-88
2023/07/22 02:40:37;;;;;;;11.97;7.90;;;12.90;99.90;;;;;;5079956;28;20185;-88
2023/07/22 02:43:04;;;;;;;8.43;7.57;;;13.00;99.90;;;;;;5079360;28;20280;-89
2023/07/22 02:45:30;;;;;;;9.60;7.23;;;13.00;99.90;;;;;;5083802;28;20221;-88
2023/07/22 02:47:56;;;;;;;8.23;7.33;;;13.00;99.90;;;;;;5082295;28;20177;-89
2023/07/22 02:50:21;;;;;;;7.50;6.70;;;13.10;99.90;;;;;;5099189;28;20242;-89
2023/07/22 02:52:47;;;;;;;9.50;7.07;;;13.10;99.90;;;;;;5082682;28;20425;-89
2023/07/22 02:55:18;;;;;;;14.50;8.03;;;13.00;99.90;;;;;;5081776;28;20184;-89
2023/07/22 02:57:44;;;;;;;10.87;7.37;;;13.00;99.90;;;;;;5080077;28;20750;-89
2023/07/22 03:00:12;;;;;;;9.60;7.20;;;13.00;99.90;;;;;;5079254;28;20205;-89
2023/07/22 03:02:39;;;;;;;11.50;7.43;;;13.00;99.90;;;;;;5079128;28;20181;-89
2023/07/22 03:05:09;;;;;;;8.93;7.00;;;13.00;99.90;;;;;;5079252;28;20212;-89
2023/07/22 03:07:36;;;;;;;7.90;7.10;;;12.90;99.90;;;;;;5078309;28;20181;-89
2023/07/22 03:10:02;;;;;;;8.47;7.13;;;12.90;99.90;;;;;;5078368;28;20549;-89
2023/07/22 03:12:28;;;;;;;9.87;7.40;;;12.90;99.90;;;;;;5079064;28;20261;-89
2023/07/22 03:14:54;;;;;;;10.17;7.37;;;12.80;99.90;;;;;;5062828;28;20225;-89
2023/07/22 03:17:20;;;;;;;10.30;7.57;;;12.80;99.90;;;;;;5078887;28;20169;-90
2023/07/22 03:19:46;;;;;;;9.40;7.30;;;12.70;99.90;;;;;;5081136;28;20177;-89
2023/07/22 03:22:18;;;;;;;8.10;7.03;;;12.70;99.90;;;;;;5082777;28;20178;-90
2023/07/22 03:24:45;;;;;;;8.37;7.23;;;12.60;99.90;;;;;;5066130;28;20236;-89
2023/07/22 03:27:11;;;;;;;9.23;7.77;;;12.60;99.90;;;;;;5082690;28;20177;-89
2023/07/22 03:29:38;;;;;;;9.20;7.07;;;12.50;99.90;;;;;;5082776;28;20174;-90
2023/07/22 03:32:04;;;;;;;7.27;6.33;;;12.50;99.90;;;;;;5081610;28;20208;-89
2023/07/22 03:34:30;;;;;;;11.37;8.17;;;12.40;99.90;;;;;;5082178;28;20246;-89
2023/07/22 03:36:57;;;;;;;9.10;7.47;;;12.30;99.90;;;;;;5083669;28;20177;-89
2023/07/22 03:39:22;;;;;;;9.63;7.73;;;12.30;99.90;;;;;;5087180;28;20173;-89
2023/07/22 03:41:48;;;;;;;8.33;7.43;;;12.20;99.90;;;;;;5087494;28;20181;-89
2023/07/22 03:44:14;;;;;;;10.70;7.23;;;12.20;99.90;;;;;;5069681;28;20248;-89
2023/07/22 03:46:40;;;;;;;9.10;7.47;;;12.10;99.90;;;;;;5069723;28;20656;-89
2023/07/22 03:49:05;;;;;;;10.13;7.47;;;12.10;99.90;;;;;;5087220;28;20263;-89
2023/07/22 03:51:33;;;;;;;9.70;7.63;;;12.10;99.90;;;;;;5086501;28;20196;-89
2023/07/22 03:54:01;;;;;;;8.60;7.30;;;12.10;99.90;;;;;;5086470;28;20189;-90
2023/07/22 03:56:27;;;;;;;8.47;7.37;;;12.20;99.90;;;;;;5085134;28;20595;-89
2023/07/22 03:58:54;;;;;;;10.77;7.47;;;12.20;99.90;;;;;;5084695;28;20170;-89
2023/07/22 04:01:20;;;;;;;10.57;7.27;;;12.20;99.90;;;;;;5085591;28;20176;-89
2023/07/22 04:03:46;;;;;;;8.47;7.63;;;12.30;99.90;;;;;;5069788;28;20285;-89
2023/07/22 04:06:11;;;;;;;10.47;7.53;;;12.50;99.90;;;;;;5070710;28;20210;-89
2023/07/22 04:08:38;;;;;;;10.37;8.53;;;12.50;99.90;;;;;;5105474;28;20169;-89
2023/07/22 04:11:03;;;;;;;9.00;7.83;;;12.60;99.90;;;;;;5066697;28;20291;-89
2023/07/22 04:13:29;;;;;;;7.77;6.97;;;12.70;99.90;;;;;;5084214;28;20679;-89
2023/07/22 04:15:55;;;;;;;11.93;8.40;;;12.80;99.90;;;;;;5086049;28;20181;-89
2023/07/22 04:18:21;;;;;;;7.93;7.17;;;12.90;99.90;;;;;;5085772;28;20201;-89
2023/07/22 04:20:49;;;;;;;8.30;6.50;;;13.00;99.90;;;;;;5085899;28;20185;-89
2023/07/22 04:23:15;;;;;;;10.50;7.37;;;13.10;99.90;;;;;;5085576;28;20201;-89
2023/07/22 04:25:47;;;;;;;8.63;7.47;;;13.20;99.90;;;;;;5085613;28;20209;-89
2023/07/22 04:28:18;;;;;;;8.57;7.57;;;13.30;99.90;;;;;;5104634;28;20252;-89
2023/07/22 04:30:58;;;;;;;8.43;7.33;;;13.40;99.90;;;;;;5069751;28;20205;-89
2023/07/22 04:33:25;;;;;;;8.00;6.73;;;13.50;99.90;;;;;;5085508;28;20591;-89
2023/07/22 04:35:57;;;;;;;7.43;6.73;;;13.60;99.90;;;;;;5085236;28;20185;-90
2023/07/22 04:38:23;;;;;;;12.27;6.93;;;13.60;99.90;;;;;;5085002;28;20176;-89
2023/07/22 04:40:50;;;;;;;11.37;7.23;;;13.70;99.90;;;;;;5092282;28;20221;-89
2023/07/22 04:43:15;;;;;;;11.13;6.70;;;13.70;99.90;;;;;;5091821;28;20197;-89
2023/07/22 04:45:41;;;;;;;8.50;6.67;;;13.80;99.90;;;;;;5083363;28;20297;-89
2023/07/22 04:48:07;;;;;;;8.30;7.37;;;13.80;99.90;;;;;;5078834;28;20201;-90
2023/07/22 04:50:33;;;;;;;7.40;6.63;;;14.00;99.90;;;;;;5082033;28;20177;-90
2023/07/22 04:52:59;;;;;;;9.53;7.23;;;14.00;99.90;;;;;;5083833;28;20197;-90
2023/07/22 04:55:29;;;;;;;9.73;7.03;;;14.10;99.90;;;;;;5083323;28;20181;-89
2023/07/22 04:57:55;;;;;;;9.63;6.70;;;14.20;99.90;;;;;;5067361;28;20190;-89
2023/07/22 05:00:23;;;;;;;8.50;6.90;;;14.20;99.90;;;;;;5100922;28;20173;-89
2023/07/22 05:02:48;;;;;;;9.97;7.60;;;14.40;99.90;;;;;;5082285;28;20189;-89
2023/07/22 05:05:15;;;;;;;7.97;7.27;;;14.40;99.90;;;;;;5082490;28;20216;-89
2023/07/22 05:07:41;;;;;;;9.03;7.23;;;14.50;99.90;;;;;;5082501;28;20230;-89
2023/07/22 05:10:12;;;;;;;12.17;7.90;;;14.60;99.90;;;;;;5100605;28;20173;-89
2023/07/22 05:12:38;;;;;;;9.27;7.27;;;14.60;99.90;;;;;;5082952;28;20173;-89
2023/07/22 05:15:05;;;;;;;7.57;6.77;;;14.70;99.90;;;;;;5082554;28;20177;-89
2023/07/22 05:17:31;;;;;;;8.73;7.70;;;14.70;99.90;;;;;;5082135;28;20181;-90
2023/07/22 05:19:57;;;;;;;8.97;7.63;;;14.70;99.90;;;;;;5081650;28;20174;-89
2023/07/22 05:22:23;;;;;;;8.07;6.97;;;14.90;99.90;;;;;;5082094;28;20173;-90
2023/07/22 05:24:50;;;;;;;9.40;7.33;;;15.10;99.90;;;;;;5082107;28;20714;-89
2023/07/22 05:27:19;;;;;;;7.37;6.60;;;15.40;99.90;;;;;;5082129;28;20718;-89
2023/07/22 05:29:45;;;;;;;8.57;7.00;;;15.70;99.90;;;;;;5082194;28;20204;-89
2023/07/22 05:32:11;;;;;;;7.43;6.63;;;15.90;99.90;;;;;;5082167;28;20181;-88
2023/07/22 05:34:37;;;;;;;6.67;5.87;;;16.10;99.90;;;;;;5081685;28;20193;-89
2023/07/22 05:37:02;;;;;;;7.20;6.47;;;16.20;99.90;;;;;;5081237;28;20181;-88
2023/07/22 05:39:28;;;;;;;7.57;6.60;;;16.30;99.90;;;;;;5081644;28;20204;-89
2023/07/22 05:41:54;;;;;;;7.73;6.93;;;16.40;99.90;;;;;;5081965;28;20174;-89
2023/07/22 05:44:19;;;;;;;8.40;6.50;;;16.60;99.90;;;;;;5082168;28;20217;-89
2023/07/22 05:46:45;;;;;;;8.77;7.13;;;16.70;99.90;;;;;;5082293;28;20704;-89
2023/07/22 05:49:11;;;;;;;6.67;6.00;;;16.90;99.90;;;;;;5083164;28;20208;-89
2023/07/22 05:51:37;;;;;;;8.20;7.03;;;17.20;99.90;;;;;;5083425;28;20173;-89
2023/07/22 05:54:04;;;;;;;6.20;5.60;;;17.50;99.90;;;;;;5086810;28;20236;-88
2023/07/22 05:56:30;;;;;;;6.27;5.67;;;17.80;99.90;;;;;;5099140;28;20157;-89
2023/07/22 05:58:56;;;;;;;8.43;5.50;;;18.20;99.90;;;;;;5101587;28;20192;-89
2023/07/22 06:01:24;;;;;;;7.50;5.80;;;18.50;99.90;;;;;;5096279;28;20609;-88
2023/07/22 06:03:50;;;;;;;5.93;5.37;;;18.70;99.90;;;;;;5082298;28;20193;-89
2023/07/22 06:06:16;;;;;;;7.30;6.20;;;18.80;99.90;;;;;;5081612;28;20208;-88
2023/07/22 06:08:41;;;;;;;6.63;5.67;;;19.20;99.90;;;;;;5082087;28;20548;-89
2023/07/22 06:11:07;;;;;;;5.90;5.23;;;19.60;99.90;;;;;;5081846;28;20200;-89
2023/07/22 06:13:33;;;;;;;5.75;5.18;;;20.00;99.90;;;;;;5082911;28;20683;-88
2023/07/22 06:15:58;;;;;;;5.90;5.30;;;20.50;99.90;;;;;;5082668;28;20208;-89
2023/07/22 06:18:24;;;;;;;7.07;5.55;;;20.50;99.90;;;;;;5082543;28;20200;-88
2023/07/22 06:20:50;;;;;;;8.43;5.63;;;20.60;99.90;;;;;;5082791;28;20709;-89
2023/07/22 06:23:16;;;;;;;6.10;5.10;;;20.60;99.90;;;;;;5086201;28;20671;-89
2023/07/22 06:25:42;;;;;;;6.20;4.97;;;20.70;99.90;;;;;;5100191;28;20227;-89
2023/07/22 06:28:09;;;;;;;6.78;5.32;;;20.60;99.90;;;;;;5101232;28;20184;-88
2023/07/22 06:30:34;;;;;;;7.18;6.25;;;20.90;99.90;;;;;;5091608;28;20184;-89
2023/07/22 06:33:00;;;;;;;5.72;5.10;;;21.20;99.90;;;;;;5088328;28;20695;-89
2023/07/22 06:35:26;;;;;;;7.00;5.60;;;21.40;99.90;;;;;;5087584;28;20169;-89
2023/07/22 06:37:51;;;;;;;6.47;5.72;;;21.40;99.90;;;;;;5086084;28;20177;-89
2023/07/22 06:40:17;;;;;;;6.07;5.40;;;21.30;99.90;;;;;;5084329;28;20561;-89
2023/07/22 06:42:43;;;;;;;7.85;5.72;;;21.30;99.90;;;;;;5103337;28;20193;-89
2023/07/22 06:45:09;;;;;;;6.60;4.82;;;21.50;99.90;;;;;;5083338;28;20495;-89
2023/07/22 06:47:36;;;;;;;7.93;7.13;;;21.60;99.90;;;;;;5083193;28;20165;-89
2023/07/22 06:50:04;;;;;;;6.70;5.70;;;21.70;99.90;;;;;;5084153;28;20173;-89
2023/07/22 06:52:30;;;;;;;7.55;6.78;;;21.50;99.90;;;;;;5081331;28;20165;-89
2023/07/22 06:54:56;;;;;;;7.93;6.75;;;21.50;99.90;;;;;;5081338;28;20193;-89
2023/07/22 06:57:21;;;;;;;6.82;5.72;;;21.40;99.90;;;;;;5081845;28;20209;-89
2023/07/22 06:59:51;;;;;;;7.30;6.50;;;21.10;99.90;;;;;;5085388;28;20173;-89
2023/07/22 07:02:16;;;;;;;8.45;6.28;;;20.80;99.90;;;;;;5053192;28;20249;-88
2023/07/22 07:04:42;;;;;;;6.30;5.68;;;20.70;99.90;;;;;;5082542;22;20229;-69
2023/07/22 07:07:08;;;;;;;6.55;5.38;;;20.60;99.90;;;;;;5071025;28;20224;-70
2023/07/22 07:09:35;;;;;;;6.60;5.30;;;20.50;99.90;;;;;;5070768;28;20257;-69
2023/07/22 07:12:01;;;;;;;6.57;5.73;;;20.40;99.90;;;;;;5071169;28;20535;-70
2023/07/22 07:14:26;;;;;;;7.30;5.23;;;20.20;99.90;;;;;;5053459;28;20269;-70
2023/07/22 07:16:52;;;;;;;11.60;5.67;;;20.20;99.90;;;;;;5071031;28;20668;-69
2023/07/22 07:19:17;;;;;;;7.87;5.50;;;20.00;99.90;;;;;;5343587;22;20518;-70
2023/07/22 07:21:43;;;;;;;6.60;5.60;;;20.10;99.90;;;;;;5031291;28;20187;-69
2023/07/22 07:24:09;;;;;;;8.30;6.50;;;20.30;99.90;;;;;;5030080;28;20183;-70
2023/07/22 07:26:34;;;;;;;8.43;6.03;;;20.40;99.90;;;;;;5031657;28;20408;-70
2023/07/22 07:29:00;;;;;;;7.60;5.70;;;20.60;99.90;;;;;;5029746;28;20206;-69
2023/07/22 07:31:25;;;;;;;7.43;6.70;;;21.00;99.90;;;;;;5031130;28;20599;-69
2023/07/22 07:33:51;;;;;;;8.90;6.38;;;21.40;99.90;;;;;;5031294;28;20176;-70
2023/07/22 07:36:17;;;;;;;6.93;6.28;;;21.70;99.90;;;;;;5031294;28;20178;-69
2023/07/22 07:38:42;;;;;;;8.82;5.65;;;22.00;99.90;;;;;;5029973;28;20175;-69
2023/07/22 07:41:08;;;;;;;7.68;6.05;;;22.10;99.90;;;;;;5031096;28;20175;-70
2023/07/22 07:43:35;;;;;;;7.22;6.53;;;22.20;99.90;;;;;;5031016;28;20168;-70
2023/07/22 07:46:23;;;;;;;11.95;8.85;;;21.90;99.90;;;;;;5031157;28;20214;-69
2023/07/22 07:48:55;;;;;;;8.05;7.28;;;21.70;99.90;;;;;;5029858;28;20199;-69
2023/07/22 07:51:24;;;;;;;10.40;9.23;;;21.60;99.90;;;;;;5030936;28;20167;-71
2023/07/22 07:53:50;;;;;;;8.68;7.80;;;21.60;99.90;;;;;;5030966;28;20708;-69
2023/07/22 07:56:17;;;;;;;12.73;8.82;;;21.50;99.90;;;;;;5031194;28;20183;-71
2023/07/22 07:58:45;;;;;;;8.68;7.88;;;21.30;99.90;;;;;;5031006;28;20199;-70
2023/07/22 08:01:11;;;;;;;9.55;7.40;;;21.40;99.90;;;;;;5030758;28;20255;-70
2023/07/22 08:03:38;;;;;;;9.95;9.05;;;21.20;99.90;;;;;;5030836;28;20199;-69
2023/07/22 08:06:04;;;;;;;10.85;7.15;;;21.30;99.90;;;;;;5033330;28;20229;-70
2023/07/22 08:08:30;;;;;;;8.02;6.20;;;21.50;99.90;;;;;;5033478;28;20175;-69
2023/07/22 08:11:03;;;;;;;7.13;6.00;;;21.90;99.90;;;;;;5033528;28;20168;-69
2023/07/22 08:13:30;;;;;;;10.77;6.00;;;21.90;99.90;;;;;;5034313;28;20179;-70
2023/07/22 08:15:57;;;;;;;7.90;6.43;;;22.00;99.90;;;;;;5033060;28;20172;-70
2023/07/22 08:18:23;;;;;;;8.05;6.00;;;22.20;99.90;;;;;;5034544;28;20174;-70
2023/07/22 08:20:50;;;;;;;8.45;6.05;;;22.50;99.90;;;;;;5034556;28;20211;-70
2023/07/22 08:23:16;;;;;;;8.07;6.30;;;22.60;99.90;;;;;;5034074;28;20179;-69
2023/07/22 08:25:41;;;;;;;9.10;6.43;;;22.70;99.90;;;;;;5033000;28;20203;-69
2023/07/22 08:28:07;;;;;;;11.80;6.57;;;22.80;99.90;;;;;;5034301;28;20634;-69
2023/07/22 08:30:33;;;;;;;8.30;6.75;;;23.10;99.90;;;;;;5034440;28;20620;-70
2023/07/22 08:32:58;;;;;;;7.43;6.50;;;23.10;99.90;;;;;;5033701;28;20258;-70
2023/07/22 08:35:24;;;;;;;6.90;6.18;;;23.10;99.90;;;;;;5034232;28;20178;-69
2023/07/22 08:37:50;;;;;;;11.73;7.13;;;23.20;99.90;;;;;;5032894;28;20179;-70
2023/07/22 08:40:15;;;;;;;7.68;6.53;;;23.30;99.90;;;;;;5033915;28;20194;-71
2023/07/22 08:42:42;;;;;;;7.53;6.20;;;23.60;99.90;;;;;;5033719;28;20212;-70
2023/07/22 08:45:10;;;;;;;6.85;6.15;;;23.70;99.90;;;;;;5032335;28;20206;-69
2023/07/22 08:47:42;;;;;;;7.15;6.28;;;23.60;99.90;;;;;;5032620;28;20172;-70
2023/07/22 08:50:08;;;;;;;7.72;6.70;;;23.50;99.90;;;;;;5033802;28;20558;-70
2023/07/22 08:52:34;;;;;;;6.57;5.95;;;23.30;99.90;;;;;;5033593;28;20529;-70
2023/07/22 08:55:01;;;;;;;9.27;6.07;;;23.30;99.90;;;;;;5033623;28;20175;-70
2023/07/22 08:57:29;;;;;;;7.22;6.40;;;23.50;99.90;;;;;;5033915;28;20167;-70
2023/07/22 08:59:57;;;;;;;6.05;5.45;;;23.80;99.90;;;;;;5032249;28;20616;-70
2023/07/22 09:02:24;;;;;;;5.72;5.00;;;24.00;99.90;;;;;;5032069;28;20175;-70
2023/07/22 09:04:50;;;;;;;7.35;4.75;;;24.50;99.90;;;;;;5032238;28;20214;-70
2023/07/22 09:07:17;;;;;;;6.40;5.22;;;24.90;99.90;;;;;;5033493;28;20757;-70
2023/07/22 09:09:46;;;;;;;7.80;7.13;;;25.40;99.90;;;;;;5032564;28;20191;-70
2023/07/22 09:12:14;;;;;;;6.80;5.70;;;25.80;99.90;;;;;;5033041;28;20582;-70
2023/07/22 09:14:41;;;;;;;6.80;6.10;;;25.90;99.90;;;;;;5033412;28;20174;-70
2023/07/22 09:17:06;;;;;;;7.40;5.63;;;25.30;99.90;;;;;;5032131;28;20229;-70
2023/07/22 09:19:32;;;;;;;6.10;4.28;;;25.20;99.90;;;;;;5033059;28;20211;-71
2023/07/22 09:21:58;;;;;;;5.25;4.32;;;24.90;99.90;;;;;;5032862;28;20172;-70
2023/07/22 09:24:28;;;;;;;5.45;5.05;;;24.70;99.90;;;;;;5033051;28;20191;-70
2023/07/22 09:26:54;;;;;;;4.47;4.00;;;24.90;99.90;;;;;;5032964;28;20171;-70
2023/07/22 09:29:33;;;;;;;5.78;5.22;;;25.00;99.90;;;;;;5032924;28;20202;-69
2023/07/22 09:31:59;;;;;;;4.90;4.50;;;25.20;99.90;;;;;;5032721;28;20163;-69
2023/07/22 09:34:25;;;;;;;4.72;4.25;;;25.20;99.90;;;;;;5033096;28;20590;-69
2023/07/22 09:36:56;;;;;;;4.43;4.03;;;24.90;99.90;;;;;;5031460;28;20171;-70
2023/07/22 09:39:22;;;;;;;4.70;4.30;;;24.90;99.90;;;;;;5032743;28;20607;-70
2023/07/22 09:41:49;;;;;;;4.80;4.40;;;25.00;99.90;;;;;;5032573;28;20225;-69
2023/07/22 09:44:14;;;;;;;4.13;3.67;;;25.10;99.90;;;;;;5031285;28;20225;-70
2023/07/22 09:46:40;;;;;;;5.32;4.90;;;25.00;99.90;;;;;;5033092;28;20266;-69
2023/07/22 09:49:09;;;;;;;3.70;3.40;;;25.00;99.90;;;;;;5032478;28;20203;-69
2023/07/22 09:51:37;;;;;;;7.97;7.47;;;25.10;99.90;;;;;;5032543;28;20168;-70
2023/07/22 09:54:04;;;;;;;5.00;4.63;;;25.10;99.90;;;;;;5032369;28;20705;-69
2023/07/22 09:56:30;;;;;;;5.65;4.50;;;25.10;99.90;;;;;;5032612;28;20183;-69
2023/07/22 09:58:59;;;;;;;4.65;3.88;;;25.50;99.90;;;;;;5030925;28;20693;-69
2023/07/22 10:01:25;;;;;;;5.88;4.63;;;25.60;99.90;;;;;;5032372;28;20251;-69
2023/07/22 10:03:56;;;;;;;5.30;4.03;;;25.40;99.90;;;;;;5032412;28;20163;-69
2023/07/22 10:06:27;;;;;;;5.50;5.10;;;25.40;99.90;;;;;;5030995;28;20290;-70
2023/07/22 10:08:56;;;;;;;6.43;4.75;;;25.30;99.90;;;;;;5030354;28;20606;-71
2023/07/22 10:11:25;;;;;;;7.40;5.28;;;25.10;99.90;;;;;;5031981;28;20168;-72
2023/07/22 10:13:52;;;;;;;5.68;5.28;;;25.20;99.90;;;;;;5032114;28;20658;-70
2023/07/22 10:16:18;;;;;;;7.03;5.38;;;25.20;99.90;;;;;;5032260;28;20222;-70
2023/07/22 10:18:45;;;;;;;5.43;4.28;;;25.30;99.90;;;;;;5030990;28;20621;-71
2023/07/22 10:21:12;;;;;;;4.00;3.70;;;25.20;99.80;;;;;;5031969;28;20191;-72
2023/07/22 10:23:38;;;;;;;3.72;3.13;;;24.90;99.90;;;;;;5032092;28;20168;-71
2023/07/22 10:26:05;;;;;;;4.50;4.10;;;24.60;99.60;;;;;;5030565;28;20690;-70
2023/07/22 10:28:32;;;;;;;6.13;5.43;;;24.20;99.90;;;;;;5030607;28;20184;-70
2023/07/22 10:30:58;;;;;;;5.63;5.22;;;23.90;99.90;;;;;;5031987;28;20254;-69
2023/07/22 10:33:25;;;;;;;5.15;4.75;;;23.70;99.90;;;;;;5031769;28;20540;-70
2023/07/22 10:36:03;;;;;;;4.95;4.55;;;23.80;99.90;;;;;;5031975;28;20190;-70
2023/07/22 10:38:29;;;;;;;5.18;4.60;;;23.90;99.90;;;;;;5032195;28;20182;-70
2023/07/22 10:40:55;;;;;;;4.85;4.28;;;24.00;99.90;;;;;;5030416;28;20175;-71
2023/07/22 10:43:33;;;;;;;5.47;5.15;;;24.20;99.90;;;;;;5031466;28;20179;-70
2023/07/22 10:46:07;;;;;;;6.10;5.60;;;24.20;99.90;;;;;;5031662;28;20754;-71
2023/07/22 10:48:37;;;;;;;4.30;3.97;;;24.30;99.90;;;;;;5032206;28;20180;-71
2023/07/22 10:51:10;;;;;;;7.57;3.83;;;24.60;99.90;;;;;;5031551;28;20171;-71
2023/07/22 10:54:01;;;;;;;4.25;3.90;;;24.60;99.90;;;;;;5031375;28;20167;-70
2023/07/22 10:56:28;;;;;;;4.03;3.67;;;24.90;99.90;;;;;;5028752;28;20187;-71
2023/07/22 10:58:54;;;;;;;3.95;3.65;;;25.20;99.90;;;;;;5031448;28;20198;-71
2023/07/22 11:01:28;;;;;;;3.17;2.97;;;25.40;99.20;;;;;;5031167;28;20540;-70
2023/07/22 11:04:02;;;;;;;3.45;3.15;;;25.30;97.40;;;;;;5031313;28;20166;-70
2023/07/22 11:06:29;;;;;;;7.07;2.90;;;24.90;98.30;;;;;;5031520;28;20646;-70
2023/07/22 11:08:55;;;;;;;3.22;2.92;;;24.90;98.70;;;;;;5029502;28;20282;-70
2023/07/22 11:11:34;;;;;;;3.60;3.30;;;25.00;97.10;;;;;;5029877;28;20171;-71
2023/07/22 11:14:14;;;;;;;3.90;3.60;;;25.20;96.80;;;;;;5031388;28;20175;-70
2023/07/22 11:16:41;;;;;;;4.38;4.07;;;25.60;96.40;;;;;;5031695;28;20209;-72
2023/07/22 11:19:07;;;;;;;4.85;3.45;;;26.10;94.80;;;;;;5031025;28;20190;-70
2023/07/22 11:21:32;;;;;;;2.88;2.67;;;26.50;93.20;;;;;;5031339;28;20171;-70
2023/07/22 11:23:58;;;;;;;3.90;2.83;;;26.80;93.50;;;;;;5031322;28;20204;-70
2023/07/22 11:26:24;;;;;;;5.40;4.88;;;27.00;91.50;;;;;;5030153;28;20203;-70
2023/07/22 11:28:50;;;;;;;4.25;3.85;;;27.10;90.90;;;;;;5031341;28;20187;-70
2023/07/22 11:31:15;;;;;;;4.25;3.70;;;27.20;88.10;;;;;;5031047;28;20175;-71
2023/07/22 11:33:43;;;;;;;4.10;3.75;;;27.40;90.20;;;;;;5031432;28;20207;-70
2023/07/22 11:36:09;;;;;;;3.90;2.97;;;27.80;87.90;;;;;;5029993;28;20183;-70
2023/07/22 11:38:34;;;;;;;3.30;3.00;;;27.80;89.50;;;;;;5031301;28;20569;-71
2023/07/22 11:41:02;;;;;;;3.58;3.28;;;27.70;88.50;;;;;;5033899;28;20269;-70
2023/07/22 11:43:28;;;;;;;3.80;3.45;;;27.60;86.90;;;;;;5035421;28;20171;-70
2023/07/22 11:45:53;;;;;;;3.30;3.00;;;27.40;87.60;;;;;;5035676;28;20199;-70
2023/07/22 11:48:19;;;;;;;3.00;2.80;;;27.40;86.60;;;;;;5035575;28;20168;-70
2023/07/22 11:50:45;;;;;;;3.03;2.72;;;27.60;85.30;;;;;;5035386;28;20191;-69
2023/07/22 11:53:10;;;;;;;4.82;3.75;;;27.50;84.10;;;;;;5034751;28;20210;-71
2023/07/22 11:55:37;;;;;;;4.78;4.47;;;27.40;84.20;;;;;;5034962;28;20167;-69
2023/07/22 11:58:03;;;;;;;5.15;4.85;;;27.50;79.80;;;;;;5035139;28;20642;-70
2023/07/22 12:00:29;;;;;;;6.50;5.05;;;27.60;82.10;;;;;;5034933;28;20249;-70
2023/07/22 12:02:57;;;;;;;6.97;6.40;;;27.60;82.10;;;;;;5034600;28;20171;-70
2023/07/22 12:05:23;;;;;;;4.72;4.32;;;27.60;84.20;;;;;;5034777;28;20274;-69
2023/07/22 12:07:48;;;;;;;4.13;3.72;;;27.70;80.50;;;;;;5034838;28;20191;-69
2023/07/22 12:10:15;;;;;;;5.50;5.10;;;27.50;79.40;;;;;;5032726;28;20187;-69
2023/07/22 12:12:46;;;;;;;3.67;3.40;;;27.30;82.50;;;;;;5034532;28;20179;-69
2023/07/22 12:15:19;;;;;;;3.88;3.60;;;27.20;77.00;;;;;;5034392;28;20272;-70
2023/07/22 12:18:00;;;;;;;5.05;4.65;;;27.00;78.10;;;;;;5034672;28;20642;-70
2023/07/22 12:20:33;;;;;;;3.60;3.30;;;26.90;78.40;;;;;;5034653;28;20215;-70
2023/07/22 12:23:00;;;;;;;4.22;3.92;;;27.10;81.90;;;;;;5034143;28;20574;-70
2023/07/22 12:25:25;;;;;;;3.92;3.65;;;27.30;77.80;;;;;;5034085;28;20671;-70
2023/07/22 12:27:51;;;;;;;4.40;4.10;;;27.10;75.60;;;;;;5034331;28;20245;-70
2023/07/22 12:30:17;;;;;;;6.25;5.82;;;27.30;79.30;;;;;;5034239;28;20188;-71
2023/07/22 12:32:43;;;;;;;3.92;3.63;;;27.50;81.20;;;;;;5034135;28;20631;-71
2023/07/22 12:35:09;;;;;;;4.05;3.75;;;27.80;78.40;;;;;;5034220;28;20184;-69
2023/07/22 12:37:36;;;;;;;4.55;4.25;;;28.00;76.70;;;;;;5034367;28;20176;-70
2023/07/22 12:40:04;;;;;;;4.55;4.25;;;28.10;74.80;;;;;;5033852;28;20716;-70
2023/07/22 12:42:30;;;;;;;4.50;4.10;;;27.90;75.80;;;;;;5034415;28;20238;-69
2023/07/22 12:44:56;;;;;;;3.83;3.55;;;27.80;77.70;;;;;;5034236;28;20234;-69